sensor_id;sensor_type;location;lat;lon;timestamp;pressure;altitude;pressure_sealevel;temperature;humidity
15272;BME280;7737;51.578;7.268;2023-03-09T00:01:35;98578.97;;;1.31;100.00
15272;BME280;7737;51.578;7.268;2023-03-09T00:04:03;98572.81;;;1.32;100.00
15272;BME280;7737;51.578;7.268;2023-03-09T00:06:29;98567.66;;;1.31;100.00
15272;BME280;7737;51.578;7.268;2023-03-09T00:08:56;98567.72;;;1.29;100.00
15272;BME280;7737;51.578;7.268;2023-03-09T00:11:23;98572.81;;;1.32;100.00
15272;BME280;7737;51.578;7.268;2023-03-09T00:13:50;98576.13;;;1.36;100.00
15272;BME280;7737;51.578;7.268;2023-03-09T00:16:19;98593.91;;;1.48;100.00
15272;BME280;7737;51.578;7.268;2023-03-09T00:18:46;98585.41;;;1.43;100.00
15272;BME280;7737;51.578;7.268;2023-03-09T00:21:14;98581.22;;;1.39;100.00
15272;BME280;7737;51.578;7.268;2023-03-09T00:23:59;98582.06;;;1.39;100.00
15272;BME280;7737;51.578;7.268;2023-03-09T00:26:26;98570.91;;;1.36;100.00
15272;BME280;7737;51.578;7.268;2023-03-09T00:28:52;98582.06;;;1.39;100.00
15272;BME280;7737;51.578;7.268;2023-03-09T00:31:19;98588.53;;;1.51;100.00
15272;BME280;7737;51.578;7.268;2023-03-09T00:33:46;98592.47;;;1.41;100.00
15272;BME280;7737;51.578;7.268;2023-03-09T00:36:15;98601.94;;;1.43;100.00
15272;BME280;7737;51.578;7.268;2023-03-09T00:38:43;98601.16;;;1.41;100.00
15272;BME280;7737;51.578;7.268;2023-03-09T00:41:09;98598.63;;;1.40;100.00
15272;BME280;7737;51.578;7.268;2023-03-09T00:43:36;98602.88;;;1.42;100.00
15272;BME280;7737;51.578;7.268;2023-03-09T00:46:03;98597.16;;;1.34;100.00
15272;BME280;7737;51.578;7.268;2023-03-09T00:48:29;98590.91;;;1.37;100.00
15272;BME280;7737;51.578;7.268;2023-03-09T00:50:56;98591.69;;;1.39;100.00
15272;BME280;7737;51.578;7.268;2023-03-09T00:53:23;98600.31;;;1.41;100.00
15272;BME280;7737;51.578;7.268;2023-03-09T00:55:50;98606.97;;;1.48;100.00
15272;BME280;7737;51.578;7.268;2023-03-09T00:58:16;98605.13;;;1.50;100.00
15272;BME280;7737;51.578;7.268;2023-03-09T01:00:43;98609.16;;;1.57;100.00
15272;BME280;7737;51.578;7.268;2023-03-09T01:03:09;98614.88;;;1.46;100.00
15272;BME280;7737;51.578;7.268;2023-03-09T01:05:36;98611.34;;;1.47;100.00
15272;BME280;7737;51.578;7.268;2023-03-09T01:08:03;98606.41;;;1.41;100.00
15272;BME280;7737;51.578;7.268;2023-03-09T01:10:31;98606.97;;;1.48;100.00
15272;BME280;7737;51.578;7.268;2023-03-09T01:12:57;98608.50;;;1.52;100.00
15272;BME280;7737;51.578;7.268;2023-03-09T01:15:24;98606.34;;;1.43;100.00
15272;BME280;7737;51.578;7.268;2023-03-09T01:17:51;98600.25;;;1.42;100.00
15272;BME280;7737;51.578;7.268;2023-03-09T01:20:17;98599.41;;;1.42;100.00
15272;BME280;7737;51.578;7.268;2023-03-09T01:22:44;98593.47;;;1.38;100.00
15272;BME280;7737;51.578;7.268;2023-03-09T01:25:10;98594.88;;;1.45;100.00
15272;BME280;7737;51.578;7.268;2023-03-09T01:27:38;98600.44;;;1.56;100.00
15272;BME280;7737;51.578;7.268;2023-03-09T01:30:06;98608.75;;;1.47;100.00
15272;BME280;7737;51.578;7.268;2023-03-09T01:32:33;98600.19;;;1.44;100.00
15272;BME280;7737;51.578;7.268;2023-03-09T01:34:59;98611.63;;;1.41;100.00
15272;BME280;7737;51.578;7.268;2023-03-09T01:37:26;98602.16;;;1.39;100.00
15272;BME280;7737;51.578;7.268;2023-03-09T01:39:52;98607.13;;;1.45;100.00
15272;BME280;7737;51.578;7.268;2023-03-09T01:42:19;98610.38;;;1.50;100.00
15272;BME280;7737;51.578;7.268;2023-03-09T01:47:49;98625.06;;;1.52;100.00
15272;BME280;7737;51.578;7.268;2023-03-09T01:50:17;98627.78;;;1.51;100.00
15272;BME280;7737;51.578;7.268;2023-03-09T01:52:45;98636.63;;;1.48;100.00
15272;BME280;7737;51.578;7.268;2023-03-09T01:55:14;98640.78;;;1.52;100.00
15272;BME280;7737;51.578;7.268;2023-03-09T01:57:45;98646.16;;;1.49;100.00
15272;BME280;7737;51.578;7.268;2023-03-09T02:00:16;98651.25;;;1.52;100.00
15272;BME280;7737;51.578;7.268;2023-03-09T02:02:47;98652.09;;;1.53;100.00
15272;BME280;7737;51.578;7.268;2023-03-09T02:05:20;98659.31;;;1.66;100.00
15272;BME280;7737;51.578;7.268;2023-03-09T02:07:49;98663.84;;;1.63;100.00
15272;BME280;7737;51.578;7.268;2023-03-09T02:10:19;98670.22;;;1.57;100.00
15272;BME280;7737;51.578;7.268;2023-03-09T02:12:51;98663.56;;;1.50;100.00
15272;BME280;7737;51.578;7.268;2023-03-09T02:15:20;98655.72;;;1.50;100.00
15272;BME280;7737;51.578;7.268;2023-03-09T02:17:46;98661.81;;;1.51;100.00
15272;BME280;7737;51.578;7.268;2023-03-09T02:20:19;98671.47;;;1.67;100.00
15272;BME280;7737;51.578;7.268;2023-03-09T02:22:49;98678.44;;;1.68;100.00
15272;BME280;7737;51.578;7.268;2023-03-09T02:25:23;98688.91;;;1.68;100.00
15272;BME280;7737;51.578;7.268;2023-03-09T02:27:54;98694.28;;;1.65;100.00
15272;BME280;7737;51.578;7.268;2023-03-09T02:30:22;98692.72;;;1.61;100.00
15272;BME280;7737;51.578;7.268;2023-03-09T02:32:49;98697.16;;;1.59;100.00
15272;BME280;7737;51.578;7.268;2023-03-09T02:35:16;98700.38;;;1.66;100.00
15272;BME280;7737;51.578;7.268;2023-03-09T02:37:42;98706.72;;;1.60;100.00
15272;BME280;7737;51.578;7.268;2023-03-09T02:40:12;98702.13;;;1.65;100.00
15272;BME280;7737;51.578;7.268;2023-03-09T02:42:41;98695.97;;;1.66;100.00
15272;BME280;7737;51.578;7.268;2023-03-09T02:45:11;98700.22;;;1.69;100.00
15272;BME280;7737;51.578;7.268;2023-03-09T02:47:38;98699.78;;;1.78;100.00
15272;BME280;7737;51.578;7.268;2023-03-09T02:50:06;98690.16;;;1.78;100.00
15272;BME280;7737;51.578;7.268;2023-03-09T02:52:34;98695.19;;;1.83;100.00
15272;BME280;7737;51.578;7.268;2023-03-09T02:55:01;98717.69;;;1.87;100.00
15272;BME280;7737;51.578;7.268;2023-03-09T02:57:28;98722.22;;;1.83;100.00
15272;BME280;7737;51.578;7.268;2023-03-09T02:59:54;98727.53;;;1.82;100.00
15272;BME280;7737;51.578;7.268;2023-03-09T03:02:22;98721.22;;;1.86;100.00
15272;BME280;7737;51.578;7.268;2023-03-09T03:04:49;98731.94;;;1.81;100.00
15272;BME280;7737;51.578;7.268;2023-03-09T03:07:15;98748.22;;;1.69;100.00
15272;BME280;7737;51.578;7.268;2023-03-09T03:09:42;98742.69;;;1.75;100.00
15272;BME280;7737;51.578;7.268;2023-03-09T03:12:09;98750.03;;;1.86;100.00
15272;BME280;7737;51.578;7.268;2023-03-09T03:14:35;98751.16;;;1.80;100.00
15272;BME280;7737;51.578;7.268;2023-03-09T03:17:02;98757.53;;;1.94;100.00
15272;BME280;7737;51.578;7.268;2023-03-09T03:19:29;98754.78;;;1.97;100.00
15272;BME280;7737;51.578;7.268;2023-03-09T03:21:57;98757.41;;;1.97;100.00
15272;BME280;7737;51.578;7.268;2023-03-09T03:24:24;98755.56;;;1.99;100.00
15272;BME280;7737;51.578;7.268;2023-03-09T03:26:50;98756.63;;;1.95;100.00
15272;BME280;7737;51.578;7.268;2023-03-09T03:29:17;98761.50;;;1.83;100.00
15272;BME280;7737;51.578;7.268;2023-03-09T03:31:43;98771.00;;;1.86;100.00
15272;BME280;7737;51.578;7.268;2023-03-09T03:34:10;98775.75;;;1.97;100.00
15272;BME280;7737;51.578;7.268;2023-03-09T03:36:38;98773.56;;;1.88;100.00
15272;BME280;7737;51.578;7.268;2023-03-09T03:39:04;98777.34;;;1.80;100.00
15272;BME280;7737;51.578;7.268;2023-03-09T03:41:31;98780.63;;;1.85;100.00
15272;BME280;7737;51.578;7.268;2023-03-09T03:43:58;98793.06;;;1.80;100.00
15272;BME280;7737;51.578;7.268;2023-03-09T03:46:24;98804.34;;;1.82;100.00
15272;BME280;7737;51.578;7.268;2023-03-09T03:48:50;98814.97;;;1.79;100.00
15272;BME280;7737;51.578;7.268;2023-03-09T03:51:17;98821.69;;;1.85;100.00
15272;BME280;7737;51.578;7.268;2023-03-09T03:53:45;98814.31;;;1.74;100.00
15272;BME280;7737;51.578;7.268;2023-03-09T03:56:11;98817.13;;;1.70;100.00
15272;BME280;7737;51.578;7.268;2023-03-09T03:58:38;98801.63;;;1.65;100.00
15272;BME280;7737;51.578;7.268;2023-03-09T04:01:05;98792.94;;;1.83;100.00
15272;BME280;7737;51.578;7.268;2023-03-09T04:03:31;98804.97;;;1.69;100.00
15272;BME280;7737;51.578;7.268;2023-03-09T04:05:58;98819.22;;;1.82;100.00
15272;BME280;7737;51.578;7.268;2023-03-09T04:08:25;98820.72;;;1.88;100.00
15272;BME280;7737;51.578;7.268;2023-03-09T04:10:53;98827.38;;;1.95;100.00
15272;BME280;7737;51.578;7.268;2023-03-09T04:13:19;98837.81;;;1.76;100.00
15272;BME280;7737;51.578;7.268;2023-03-09T04:15:46;98843.03;;;1.76;100.00
15272;BME280;7737;51.578;7.268;2023-03-09T04:18:12;98840.81;;;1.87;100.00
15272;BME280;7737;51.578;7.268;2023-03-09T04:20:39;98841.94;;;1.81;100.00
15272;BME280;7737;51.578;7.268;2023-03-09T04:23:07;98838.41;;;1.82;100.00
15272;BME280;7737;51.578;7.268;2023-03-09T04:25:34;98844.53;;;1.81;100.00
15272;BME280;7737;51.578;7.268;2023-03-09T04:28:02;98849.00;;;1.79;100.00
15272;BME280;7737;51.578;7.268;2023-03-09T04:30:28;98866.91;;;1.89;100.00
15272;BME280;7737;51.578;7.268;2023-03-09T04:32:55;98859.19;;;1.85;100.00
15272;BME280;7737;51.578;7.268;2023-03-09T04:35:22;98856.22;;;1.74;100.00
15272;BME280;7737;51.578;7.268;2023-03-09T04:37:49;98865.25;;;1.88;100.00
15272;BME280;7737;51.578;7.268;2023-03-09T04:40:17;98863.94;;;1.96;100.00
15272;BME280;7737;51.578;7.268;2023-03-09T04:42:44;98872.53;;;2.00;100.00
15272;BME280;7737;51.578;7.268;2023-03-09T04:45:12;98875.16;;;2.00;100.00
15272;BME280;7737;51.578;7.268;2023-03-09T04:47:38;98866.28;;;1.83;100.00
15272;BME280;7737;51.578;7.268;2023-03-09T04:50:05;98878.84;;;1.96;100.00
15272;BME280;7737;51.578;7.268;2023-03-09T04:52:32;98888.25;;;2.00;100.00
15272;BME280;7737;51.578;7.268;2023-03-09T04:54:58;98894.34;;;2.00;100.00
15272;BME280;7737;51.578;7.268;2023-03-09T04:57:25;98892.22;;;1.90;100.00
15272;BME280;7737;51.578;7.268;2023-03-09T04:59:51;98906.81;;;1.95;100.00
15272;BME280;7737;51.578;7.268;2023-03-09T05:02:19;98900.09;;;1.88;100.00
15272;BME280;7737;51.578;7.268;2023-03-09T05:04:46;98902.25;;;1.99;100.00
15272;BME280;7737;51.578;7.268;2023-03-09T05:07:13;98902.69;;;1.90;100.00
15272;BME280;7737;51.578;7.268;2023-03-09T05:09:39;98903.72;;;1.85;100.00
15272;BME280;7737;51.578;7.268;2023-03-09T05:12:06;98918.00;;;1.78;100.00
15272;BME280;7737;51.578;7.268;2023-03-09T05:14:32;98913.28;;;1.87;100.00
15272;BME280;7737;51.578;7.268;2023-03-09T05:16:59;98912.47;;;2.05;100.00
15272;BME280;7737;51.578;7.268;2023-03-09T05:19:26;98914.59;;;1.97;100.00
15272;BME280;7737;51.578;7.268;2023-03-09T05:21:53;98919.94;;;1.94;100.00
15272;BME280;7737;51.578;7.268;2023-03-09T05:24:20;98915.31;;;2.00;100.00
15272;BME280;7737;51.578;7.268;2023-03-09T05:26:46;98932.28;;;1.92;100.00
15272;BME280;7737;51.578;7.268;2023-03-09T05:29:12;98933.88;;;1.96;100.00
15272;BME280;7737;51.578;7.268;2023-03-09T05:31:39;98940.28;;;2.09;100.00
15272;BME280;7737;51.578;7.268;2023-03-09T05:34:05;98937.25;;;1.98;100.00
15272;BME280;7737;51.578;7.268;2023-03-09T05:36:33;98948.38;;;2.03;100.00
15272;BME280;7737;51.578;7.268;2023-03-09T05:39:00;98962.25;;;2.05;100.00
15272;BME280;7737;51.578;7.268;2023-03-09T05:41:26;98955.72;;;1.95;100.00
15272;BME280;7737;51.578;7.268;2023-03-09T05:43:53;98960.31;;;1.90;100.00
15272;BME280;7737;51.578;7.268;2023-03-09T05:46:19;98963.06;;;1.87;100.00
15272;BME280;7737;51.578;7.268;2023-03-09T05:48:48;98960.56;;;1.83;100.00
15272;BME280;7737;51.578;7.268;2023-03-09T05:51:15;98976.94;;;1.89;100.00
15272;BME280;7737;51.578;7.268;2023-03-09T05:53:43;98979.31;;;1.95;100.00
15272;BME280;7737;51.578;7.268;2023-03-09T05:56:09;98970.91;;;1.87;100.00
15272;BME280;7737;51.578;7.268;2023-03-09T05:58:36;98976.28;;;1.83;100.00
15272;BME280;7737;51.578;7.268;2023-03-09T06:01:03;98977.59;;;1.94;100.00
15272;BME280;7737;51.578;7.268;2023-03-09T06:03:29;98989.16;;;1.88;100.00
15272;BME280;7737;51.578;7.268;2023-03-09T06:05:59;98996.72;;;1.96;100.00
15272;BME280;7737;51.578;7.268;2023-03-09T06:08:27;99001.16;;;1.94;100.00
15272;BME280;7737;51.578;7.268;2023-03-09T06:10:56;98999.16;;;2.00;100.00
15272;BME280;7737;51.578;7.268;2023-03-09T06:13:23;98996.25;;;1.86;100.00
15272;BME280;7737;51.578;7.268;2023-03-09T06:15:50;98999.34;;;1.96;100.00
15272;BME280;7737;51.578;7.268;2023-03-09T06:18:16;98992.94;;;2.03;100.00
15272;BME280;7737;51.578;7.268;2023-03-09T06:20:43;98992.94;;;2.03;100.00
15272;BME280;7737;51.578;7.268;2023-03-09T06:23:09;99004.97;;;2.07;100.00
15272;BME280;7737;51.578;7.268;2023-03-09T06:25:36;99003.31;;;2.04;100.00
15272;BME280;7737;51.578;7.268;2023-03-09T06:28:04;99000.00;;;2.01;100.00
15272;BME280;7737;51.578;7.268;2023-03-09T06:30:31;99001.13;;;1.95;100.00
15272;BME280;7737;51.578;7.268;2023-03-09T06:32:57;99003.31;;;2.04;100.00
15272;BME280;7737;51.578;7.268;2023-03-09T06:35:24;99007.25;;;1.94;100.00
15272;BME280;7737;51.578;7.268;2023-03-09T06:37:51;99004.25;;;2.03;100.00
15272;BME280;7737;51.578;7.268;2023-03-09T06:40:18;99007.66;;;2.05;100.00
15272;BME280;7737;51.578;7.268;2023-03-09T06:42:45;99004.97;;;2.07;100.00
15272;BME280;7737;51.578;7.268;2023-03-09T06:45:13;99018.53;;;2.16;100.00
15272;BME280;7737;51.578;7.268;2023-03-09T06:47:39;99019.78;;;2.08;100.00
15272;BME280;7737;51.578;7.268;2023-03-09T06:50:07;99010.88;;;2.12;100.00
15272;BME280;7737;51.578;7.268;2023-03-09T06:52:33;99016.56;;;2.21;100.00
15272;BME280;7737;51.578;7.268;2023-03-09T06:55:00;99014.34;;;2.12;100.00
15272;BME280;7737;51.578;7.268;2023-03-09T06:57:26;99026.22;;;2.01;100.00
15272;BME280;7737;51.578;7.268;2023-03-09T06:59:52;99027.06;;;2.01;100.00
15272;BME280;7737;51.578;7.268;2023-03-09T07:02:20;99025.81;;;2.10;100.00
15272;BME280;7737;51.578;7.268;2023-03-09T07:04:47;99020.16;;;1.99;100.00
15272;BME280;7737;51.578;7.268;2023-03-09T07:07:13;99032.03;;;2.07;100.00
15272;BME280;7737;51.578;7.268;2023-03-09T07:09:40;99021.94;;;2.18;100.00
15272;BME280;7737;51.578;7.268;2023-03-09T07:12:07;99037.75;;;2.17;100.00
15272;BME280;7737;51.578;7.268;2023-03-09T07:14:34;99036.41;;;2.07;100.00
15272;BME280;7737;51.578;7.268;2023-03-09T07:17:00;99053.06;;;2.26;100.00
15272;BME280;7737;51.578;7.268;2023-03-09T07:19:28;99070.63;;;2.24;100.00
15272;BME280;7737;51.578;7.268;2023-03-09T07:21:55;99083.09;;;2.19;100.00
15272;BME280;7737;51.578;7.268;2023-03-09T07:24:21;99086.03;;;2.31;100.00
15272;BME280;7737;51.578;7.268;2023-03-09T07:26:48;99081.69;;;2.30;100.00
15272;BME280;7737;51.578;7.268;2023-03-09T07:29:15;99075.50;;;2.33;100.00
15272;BME280;7737;51.578;7.268;2023-03-09T07:31:42;99074.63;;;2.32;100.00
15272;BME280;7737;51.578;7.268;2023-03-09T07:34:08;99073.91;;;2.29;100.00
15272;BME280;7737;51.578;7.268;2023-03-09T07:36:36;99078.91;;;2.35;100.00
15272;BME280;7737;51.578;7.268;2023-03-09T07:39:03;99082.91;;;2.43;100.00
15272;BME280;7737;51.578;7.268;2023-03-09T07:41:29;99094.09;;;2.27;100.00
15272;BME280;7737;51.578;7.268;2023-03-09T07:43:57;99105.03;;;2.36;100.00
15272;BME280;7737;51.578;7.268;2023-03-09T07:46:24;99111.47;;;2.29;100.00
15272;BME280;7737;51.578;7.268;2023-03-09T07:48:50;99118.00;;;2.39;100.00
15272;BME280;7737;51.578;7.268;2023-03-09T07:51:17;99122.81;;;2.50;100.00
15272;BME280;7737;51.578;7.268;2023-03-09T07:53:45;99125.97;;;2.38;100.00
15272;BME280;7737;51.578;7.268;2023-03-09T07:56:12;99123.13;;;2.42;100.00
15272;BME280;7737;51.578;7.268;2023-03-09T07:58:39;99122.53;;;2.36;100.00
15272;BME280;7737;51.578;7.268;2023-03-09T08:01:07;99126.75;;;2.40;100.00
15272;BME280;7737;51.578;7.268;2023-03-09T08:03:38;99138.13;;;2.39;100.00
15272;BME280;7737;51.578;7.268;2023-03-09T08:06:04;99148.91;;;2.53;100.00
15272;BME280;7737;51.578;7.268;2023-03-09T08:08:32;99150.09;;;2.46;100.00
15272;BME280;7737;51.578;7.268;2023-03-09T08:11:00;99148.25;;;2.48;100.00
15272;BME280;7737;51.578;7.268;2023-03-09T08:13:27;99155.38;;;2.44;100.00
15272;BME280;7737;51.578;7.268;2023-03-09T08:15:53;99148.25;;;2.48;100.00
15272;BME280;7737;51.578;7.268;2023-03-09T08:18:20;99150.78;;;2.50;100.00
15272;BME280;7737;51.578;7.268;2023-03-09T08:20:47;99156.00;;;2.51;100.00
15272;BME280;7737;51.578;7.268;2023-03-09T08:23:13;99158.75;;;2.48;100.00
15272;BME280;7737;51.578;7.268;2023-03-09T08:25:39;99162.47;;;2.63;100.00
15272;BME280;7737;51.578;7.268;2023-03-09T08:28:10;99178.94;;;2.66;100.00
15272;BME280;7737;51.578;7.268;2023-03-09T08:30:37;99184.97;;;2.48;100.00
15272;BME280;7737;51.578;7.268;2023-03-09T08:33:04;99182.22;;;2.71;100.00
15272;BME280;7737;51.578;7.268;2023-03-09T08:35:31;99193.59;;;2.50;100.00
15272;BME280;7737;51.578;7.268;2023-03-09T08:37:58;99202.13;;;2.55;100.00
15272;BME280;7737;51.578;7.268;2023-03-09T08:40:24;99195.66;;;2.64;100.00
15272;BME280;7737;51.578;7.268;2023-03-09T08:42:51;99201.09;;;2.59;100.00
15272;BME280;7737;51.578;7.268;2023-03-09T08:45:19;99195.53;;;2.67;100.00
15272;BME280;7737;51.578;7.268;2023-03-09T08:47:46;99205.28;;;2.63;100.00
15272;BME280;7737;51.578;7.268;2023-03-09T08:50:12;99212.19;;;2.44;100.00
15272;BME280;7737;51.578;7.268;2023-03-09T08:52:39;99215.13;;;2.58;100.00
15272;BME280;7737;51.578;7.268;2023-03-09T08:55:08;99221.81;;;2.65;100.00
15272;BME280;7737;51.578;7.268;2023-03-09T08:57:35;99223.97;;;2.56;100.00
15272;BME280;7737;51.578;7.268;2023-03-09T09:00:02;99228.84;;;2.65;100.00
15272;BME280;7737;51.578;7.268;2023-03-09T09:02:31;99238.50;;;2.84;100.00
15272;BME280;7737;51.578;7.268;2023-03-09T09:04:57;99235.34;;;2.76;100.00
15272;BME280;7737;51.578;7.268;2023-03-09T09:07:24;99238.94;;;2.74;100.00
15272;BME280;7737;51.578;7.268;2023-03-09T09:09:50;99241.09;;;2.64;100.00
15272;BME280;7737;51.578;7.268;2023-03-09T09:12:17;99235.75;;;2.87;100.00
15272;BME280;7737;51.578;7.268;2023-03-09T09:14:43;99240.22;;;3.05;100.00
15272;BME280;7737;51.578;7.268;2023-03-09T09:17:10;99231.00;;;3.16;100.00
15272;BME280;7737;51.578;7.268;2023-03-09T09:19:38;99236.00;;;3.22;100.00
15272;BME280;7737;51.578;7.268;2023-03-09T09:22:05;99235.19;;;3.60;100.00
15272;BME280;7737;51.578;7.268;2023-03-09T09:24:35;99238.06;;;3.54;100.00
15272;BME280;7737;51.578;7.268;2023-03-09T09:27:02;99235.66;;;3.68;100.00
15272;BME280;7737;51.578;7.268;2023-03-09T09:29:30;99256.41;;;3.15;100.00
15272;BME280;7737;51.578;7.268;2023-03-09T09:31:56;99248.91;;;3.46;100.00
15272;BME280;7737;51.578;7.268;2023-03-09T09:34:23;99253.84;;;3.54;100.00
15272;BME280;7737;51.578;7.268;2023-03-09T09:36:51;99253.41;;;3.63;100.00
15272;BME280;7737;51.578;7.268;2023-03-09T09:39:17;99248.97;;;3.65;100.00
15272;BME280;7737;51.578;7.268;2023-03-09T09:41:46;99255.13;;;3.64;100.00
15272;BME280;7737;51.578;7.268;2023-03-09T09:44:16;99269.56;;;3.93;100.00
15272;BME280;7737;51.578;7.268;2023-03-09T09:46:45;99274.91;;;3.91;100.00
15272;BME280;7737;51.578;7.268;2023-03-09T09:49:15;99252.78;;;3.95;100.00
15272;BME280;7737;51.578;7.268;2023-03-09T09:52:06;99264.59;;;4.05;100.00
15272;BME280;7737;51.578;7.268;2023-03-09T09:54:38;99265.31;;;3.90;100.00
15272;BME280;7737;51.578;7.268;2023-03-09T09:57:12;99275.94;;;3.87;100.00
15272;BME280;7737;51.578;7.268;2023-03-09T09:59:42;99277.59;;;4.08;100.00
15272;BME280;7737;51.578;7.268;2023-03-09T10:02:28;99281.72;;;3.95;100.00
15272;BME280;7737;51.578;7.268;2023-03-09T10:05:04;99283.69;;;3.90;100.00
15272;BME280;7737;51.578;7.268;2023-03-09T10:07:35;99271.06;;;3.98;100.00
15272;BME280;7737;51.578;7.268;2023-03-09T10:10:04;99287.97;;;4.11;100.00
15272;BME280;7737;51.578;7.268;2023-03-09T10:12:35;99284.13;;;4.18;100.00
15272;BME280;7737;51.578;7.268;2023-03-09T10:15:04;99286.06;;;4.15;100.00
15272;BME280;7737;51.578;7.268;2023-03-09T10:17:35;99287.56;;;4.20;100.00
15272;BME280;7737;51.578;7.268;2023-03-09T10:20:11;99294.88;;;4.14;100.00
15272;BME280;7737;51.578;7.268;2023-03-09T10:22:41;99283.47;;;4.13;100.00
15272;BME280;7737;51.578;7.268;2023-03-09T10:25:12;99285.25;;;4.31;100.00
15272;BME280;7737;51.578;7.268;2023-03-09T10:27:42;99269.28;;;4.36;100.00
15272;BME280;7737;51.578;7.268;2023-03-09T10:30:17;99267.78;;;4.30;100.00
15272;BME280;7737;51.578;7.268;2023-03-09T10:32:50;99272.94;;;4.51;100.00
15272;BME280;7737;51.578;7.268;2023-03-09T10:35:22;99276.50;;;4.50;100.00
15272;BME280;7737;51.578;7.268;2023-03-09T10:37:54;99286.25;;;4.29;100.00
15272;BME280;7737;51.578;7.268;2023-03-09T10:40:22;99290.00;;;4.42;100.00
15272;BME280;7737;51.578;7.268;2023-03-09T10:42:49;99295.94;;;4.47;100.00
15272;BME280;7737;51.578;7.268;2023-03-09T10:45:23;99292.13;;;4.53;100.00
15272;BME280;7737;51.578;7.268;2023-03-09T10:47:52;99298.06;;;4.58;100.00
15272;BME280;7737;51.578;7.268;2023-03-09T10:50:19;99301.59;;;4.57;100.00
15272;BME280;7737;51.578;7.268;2023-03-09T10:52:47;99303.44;;;4.55;100.00
15272;BME280;7737;51.578;7.268;2023-03-09T10:55:43;99295.69;;;4.52;100.00
15272;BME280;7737;51.578;7.268;2023-03-09T10:58:17;99310.72;;;4.50;100.00
15272;BME280;7737;51.578;7.268;2023-03-09T11:00:56;99322.66;;;4.57;100.00
15272;BME280;7737;51.578;7.268;2023-03-09T11:03:25;99325.91;;;4.43;100.00
15272;BME280;7737;51.578;7.268;2023-03-09T11:06:08;99326.78;;;4.44;100.00
15272;BME280;7737;51.578;7.268;2023-03-09T11:08:36;99317.47;;;4.55;100.00
15272;BME280;7737;51.578;7.268;2023-03-09T11:11:06;99322.00;;;4.52;100.00
15272;BME280;7737;51.578;7.268;2023-03-09T11:13:34;99312.84;;;4.60;100.00
15272;BME280;7737;51.578;7.268;2023-03-09T11:16:10;99328.03;;;4.72;100.00
15272;BME280;7737;51.578;7.268;2023-03-09T11:18:38;99329.75;;;4.73;100.00
15272;BME280;7737;51.578;7.268;2023-03-09T11:21:05;99347.69;;;4.65;100.00
15272;BME280;7737;51.578;7.268;2023-03-09T11:23:36;99342.97;;;4.72;100.00
15272;BME280;7737;51.578;7.268;2023-03-09T11:26:10;99337.19;;;4.64;100.00
15272;BME280;7737;51.578;7.268;2023-03-09T11:28:45;99339.84;;;4.64;100.00
15272;BME280;7737;51.578;7.268;2023-03-09T11:31:16;99339.13;;;4.79;100.00
15272;BME280;7737;51.578;7.268;2023-03-09T11:33:43;99334.63;;;4.81;100.00
15272;BME280;7737;51.578;7.268;2023-03-09T11:36:16;99331.03;;;4.65;100.00
15272;BME280;7737;51.578;7.268;2023-03-09T11:38:46;99323.00;;;4.85;100.00
15272;BME280;7737;51.578;7.268;2023-03-09T11:41:18;99317.16;;;4.97;100.00
15272;BME280;7737;51.578;7.268;2023-03-09T11:43:50;99321.81;;;5.09;100.00
15272;BME280;7737;51.578;7.268;2023-03-09T11:46:20;99317.94;;;4.99;100.00
15272;BME280;7737;51.578;7.268;2023-03-09T11:48:49;99318.69;;;5.01;100.00
15272;BME280;7737;51.578;7.268;2023-03-09T11:51:21;99315.59;;;4.93;100.00
15272;BME280;7737;51.578;7.268;2023-03-09T11:53:53;99317.69;;;5.04;100.00
15272;BME280;7737;51.578;7.268;2023-03-09T11:56:26;99313.44;;;5.01;100.00
15272;BME280;7737;51.578;7.268;2023-03-09T11:58:56;99319.28;;;5.08;100.00
15272;BME280;7737;51.578;7.268;2023-03-09T12:01:29;99319.41;;;5.05;100.00
15272;BME280;7737;51.578;7.268;2023-03-09T12:04:01;99325.69;;;4.66;100.00
15272;BME280;7737;51.578;7.268;2023-03-09T12:06:42;99313.28;;;5.04;100.00
15272;BME280;7737;51.578;7.268;2023-03-09T12:09:25;99312.28;;;5.07;100.00
15272;BME280;7737;51.578;7.268;2023-03-09T12:11:56;99316.41;;;5.12;100.00
15272;BME280;7737;51.578;7.268;2023-03-09T12:14:28;99315.53;;;5.12;100.00
15272;BME280;7737;51.578;7.268;2023-03-09T12:17:00;99309.75;;;5.05;100.00
15272;BME280;7737;51.578;7.268;2023-03-09T12:19:31;99310.22;;;5.13;100.00
15272;BME280;7737;51.578;7.268;2023-03-09T12:22:02;99310.97;;;5.15;100.00
15272;BME280;7737;51.578;7.268;2023-03-09T12:24:34;99316.97;;;5.19;100.00
15272;BME280;7737;51.578;7.268;2023-03-09T12:27:12;99311.84;;;5.16;100.00
15272;BME280;7737;51.578;7.268;2023-03-09T12:29:41;99312.13;;;5.10;100.00
15272;BME280;7737;51.578;7.268;2023-03-09T12:35:10;99315.44;;;4.96;100.00
15272;BME280;7737;51.578;7.268;2023-03-09T12:37:54;99309.25;;;5.14;100.00
15272;BME280;7737;51.578;7.268;2023-03-09T12:40:30;99308.03;;;5.04;100.00
15272;BME280;7737;51.578;7.268;2023-03-09T12:43:31;99300.59;;;5.12;100.00
15272;BME280;7737;51.578;7.268;2023-03-09T12:49:17;99291.69;;;4.98;100.00
15272;BME280;7737;51.578;7.268;2023-03-09T12:51:48;99286.72;;;4.56;100.00
15272;BME280;7737;51.578;7.268;2023-03-09T12:54:21;99273.91;;;4.67;100.00
15272;BME280;7737;51.578;7.268;2023-03-09T12:56:49;99271.22;;;4.85;100.00
15272;BME280;7737;51.578;7.268;2023-03-09T12:59:19;99262.94;;;4.93;100.00
15272;BME280;7737;51.578;7.268;2023-03-09T13:01:49;99266.56;;;4.90;100.00
15272;BME280;7737;51.578;7.268;2023-03-09T13:04:17;99272.25;;;5.00;100.00
15272;BME280;7737;51.578;7.268;2023-03-09T13:06:51;99268.66;;;5.01;100.00
15272;BME280;7737;51.578;7.268;2023-03-09T13:09:22;99266.06;;;5.18;100.00
15272;BME280;7737;51.578;7.268;2023-03-09T13:11:58;99257.84;;;5.07;100.00
15272;BME280;7737;51.578;7.268;2023-03-09T13:17:38;99258.28;;;4.81;100.00
15272;BME280;7737;51.578;7.268;2023-03-09T13:20:16;99261.56;;;4.86;100.00
15272;BME280;7737;51.578;7.268;2023-03-09T13:22:44;99258.97;;;4.84;100.00
15272;BME280;7737;51.578;7.268;2023-03-09T13:28:20;99277.50;;;5.17;100.00
15272;BME280;7737;51.578;7.268;2023-03-09T13:30:47;99289.84;;;5.00;100.00
15272;BME280;7737;51.578;7.268;2023-03-09T13:33:18;99288.88;;;4.83;100.00